createdAt,value
2017-09-13T00:00:08.823Z,91.67
2017-09-13T00:02:37.351Z,91.28
2017-09-13T00:05:05.158Z,91.20
2017-09-13T00:07:33.125Z,91.62
2017-09-13T00:10:00.830Z,91.42
2017-09-13T00:12:28.621Z,91.23
2017-09-13T00:14:56.458Z,91.05
2017-09-13T00:17:24.185Z,90.84
2017-09-13T00:19:51.952Z,90.89
2017-09-13T00:22:19.734Z,91.15
2017-09-13T00:24:47.439Z,91.00
2017-09-13T00:27:15.216Z,91.10
2017-09-13T00:29:42.961Z,91.54
2017-09-13T00:32:10.714Z,91.50
2017-09-13T00:34:38.438Z,92.01
2017-09-13T00:37:06.197Z,91.99
2017-09-13T00:39:33.944Z,91.95
2017-09-13T00:42:01.704Z,91.65
2017-09-13T00:44:29.490Z,91.72
2017-09-13T00:46:57.457Z,91.81
2017-09-13T00:49:25.193Z,91.76
2017-09-13T00:51:52.992Z,91.87
2017-09-13T00:54:20.916Z,92.30
2017-09-13T00:56:48.618Z,92.85
2017-09-13T00:59:16.382Z,92.87
2017-09-13T01:01:44.417Z,92.32
2017-09-13T01:04:12.141Z,92.48
2017-09-13T01:06:39.850Z,93.36
2017-09-13T01:09:07.966Z,92.65
2017-09-13T01:11:35.660Z,92.58
2017-09-13T01:14:05.440Z,92.14
2017-09-13T01:16:33.700Z,92.09
2017-09-13T01:19:01.443Z,91.31
2017-09-13T01:21:31.154Z,91.60
2017-09-13T01:24:00.696Z,91.92
2017-09-13T01:26:28.969Z,92.33
2017-09-13T01:28:57.794Z,92.07
2017-09-13T01:31:25.599Z,92.58
2017-09-13T01:33:53.377Z,92.20
2017-09-13T01:36:21.367Z,91.82
2017-09-13T01:38:49.085Z,92.36
2017-09-13T01:41:16.849Z,91.83
2017-09-13T01:43:45.433Z,91.65
2017-09-13T01:46:13.763Z,91.57
2017-09-13T01:48:41.532Z,91.58
2017-09-13T01:51:09.247Z,91.63
2017-09-13T01:53:36.949Z,92.41
2017-09-13T01:56:04.685Z,92.78
2017-09-13T01:58:32.922Z,91.96
2017-09-13T02:01:00.642Z,91.20
2017-09-13T02:03:28.515Z,91.13
2017-09-13T02:05:57.198Z,91.42
2017-09-13T02:08:24.912Z,91.48
2017-09-13T02:10:52.764Z,91.58
2017-09-13T02:13:20.449Z,91.45
2017-09-13T02:15:49.541Z,91.21
2017-09-13T02:18:17.302Z,92.14
2017-09-13T02:20:46.775Z,92.28
2017-09-13T02:23:14.558Z,91.95
2017-09-13T02:25:42.357Z,91.74
2017-09-13T02:28:10.135Z,91.29
2017-09-13T02:30:37.933Z,91.96
2017-09-13T02:33:05.647Z,92.65
2017-09-13T02:35:33.431Z,92.36
2017-09-13T02:38:01.175Z,92.34
2017-09-13T02:40:28.981Z,91.78
2017-09-13T02:42:56.697Z,91.61
2017-09-13T02:45:24.522Z,91.94
2017-09-13T02:47:52.223Z,92.33
2017-09-13T02:50:19.993Z,92.46
2017-09-13T02:52:47.690Z,91.53
2017-09-13T02:55:15.422Z,91.31
2017-09-13T02:57:43.227Z,90.95
2017-09-13T03:00:11.049Z,91.07
2017-09-13T03:02:38.815Z,90.88
2017-09-13T03:05:06.530Z,90.97
2017-09-13T03:07:34.369Z,91.45
2017-09-13T03:10:02.083Z,91.22
2017-09-13T03:12:29.920Z,91.43
2017-09-13T03:14:58.205Z,91.44
2017-09-13T03:17:25.933Z,91.25
2017-09-13T03:19:53.630Z,91.96
2017-09-13T03:22:21.400Z,92.01
2017-09-13T03:24:49.521Z,91.57
2017-09-13T03:27:17.275Z,91.09
2017-09-13T03:29:45.049Z,91.09
2017-09-13T03:32:12.793Z,90.73
2017-09-13T03:34:40.550Z,91.47
2017-09-13T03:37:08.268Z,91.53
2017-09-13T03:39:36.052Z,91.36
2017-09-13T03:42:04.633Z,91.56
2017-09-13T03:44:32.376Z,91.04
2017-09-13T03:47:00.142Z,91.21
2017-09-13T03:49:28.026Z,90.88
2017-09-13T03:51:55.754Z,90.47
2017-09-13T03:54:23.481Z,90.71
2017-09-13T03:56:51.231Z,91.54
2017-09-13T03:59:20.290Z,90.82
2017-09-13T04:01:48.121Z,90.40
2017-09-13T04:04:15.846Z,90.58
2017-09-13T04:06:43.632Z,90.17
2017-09-13T04:09:12.041Z,90.31
2017-09-13T04:11:39.794Z,90.13
2017-09-13T04:14:07.555Z,89.99
2017-09-13T04:16:35.297Z,89.96
2017-09-13T04:19:03.256Z,89.73
2017-09-13T04:21:31.590Z,89.93
2017-09-13T04:23:59.528Z,90.70
2017-09-13T04:26:28.383Z,90.92
2017-09-13T04:28:56.128Z,91.33
2017-09-13T04:31:23.864Z,91.42
2017-09-13T04:33:51.613Z,91.76
2017-09-13T04:36:19.378Z,91.63
2017-09-13T04:38:47.257Z,91.47
2017-09-13T04:41:15.029Z,91.28
2017-09-13T04:43:42.824Z,91.39
2017-09-13T04:46:10.637Z,91.43
2017-09-13T04:48:39.380Z,91.97
2017-09-13T04:51:07.162Z,91.79
2017-09-13T04:53:34.875Z,91.64
2017-09-13T04:56:02.666Z,92.07
2017-09-13T04:58:30.412Z,91.74
2017-09-13T05:00:58.139Z,92.13
2017-09-13T05:03:25.845Z,91.77
2017-09-13T05:05:53.620Z,91.81
2017-09-13T05:08:21.313Z,91.38
2017-09-13T05:10:49.040Z,91.36
2017-09-13T05:13:16.954Z,91.54
2017-09-13T05:15:44.858Z,91.93
2017-09-13T05:18:12.551Z,92.44
2017-09-13T05:20:40.296Z,92.54
2017-09-13T05:23:07.990Z,92.48
2017-09-13T05:25:35.692Z,92.21
2017-09-13T05:28:03.486Z,91.99
2017-09-13T05:30:31.196Z,91.81
2017-09-13T05:32:58.902Z,91.91
2017-09-13T05:35:26.680Z,91.68
2017-09-13T05:37:54.386Z,90.54
2017-09-13T05:40:22.122Z,91.12
2017-09-13T05:42:49.851Z,91.75
2017-09-13T05:45:17.545Z,90.85
2017-09-13T05:47:45.320Z,89.93
2017-09-13T05:50:13.028Z,89.98
2017-09-13T05:52:41.518Z,88.95
2017-09-13T05:55:09.296Z,88.42
2017-09-13T05:57:37.021Z,88.41
2017-09-13T06:00:04.787Z,89.46
2017-09-13T06:02:32.633Z,90.43
2017-09-13T06:05:00.396Z,91.17
2017-09-13T06:07:28.097Z,90.67
2017-09-13T06:09:55.902Z,90.56
2017-09-13T06:12:23.622Z,89.91
2017-09-13T06:14:51.393Z,89.46
2017-09-13T06:17:19.734Z,89.44
2017-09-13T06:19:47.445Z,87.63
2017-09-13T06:22:15.327Z,88.15
2017-09-13T06:24:43.091Z,89.36
2017-09-13T06:27:10.815Z,88.42
2017-09-13T06:29:38.699Z,86.63
2017-09-13T06:32:06.448Z,87.52
2017-09-13T06:34:34.245Z,87.82
2017-09-13T06:37:02.066Z,86.20
2017-09-13T06:39:29.874Z,84.96
2017-09-13T06:41:57.792Z,85.45
2017-09-13T06:44:25.618Z,87.39
2017-09-13T06:46:53.338Z,86.99
2017-09-13T06:49:21.226Z,83.49
2017-09-13T06:51:48.946Z,85.45
2017-09-13T06:54:16.741Z,85.05
2017-09-13T06:56:44.520Z,83.70
2017-09-13T06:59:12.225Z,84.20
2017-09-13T07:01:40.012Z,85.03
2017-09-13T07:04:07.825Z,84.43
2017-09-13T07:06:35.555Z,83.38
2017-09-13T07:09:03.446Z,84.29
2017-09-13T07:11:31.314Z,83.69
2017-09-13T07:13:59.019Z,81.69
2017-09-13T07:16:26.790Z,80.92
2017-09-13T07:18:54.520Z,82.72
2017-09-13T07:21:22.260Z,81.88
2017-09-13T07:23:50.002Z,82.00
2017-09-13T07:26:17.777Z,81.19
2017-09-13T07:28:45.534Z,80.97
2017-09-13T07:31:13.318Z,81.52
2017-09-13T07:33:41.140Z,81.17
2017-09-13T07:36:08.905Z,81.47
2017-09-13T07:38:36.649Z,77.42
2017-09-13T07:41:04.428Z,76.21
2017-09-13T07:43:32.142Z,78.27
2017-09-13T07:45:59.907Z,78.50
2017-09-13T07:48:27.636Z,76.31
2017-09-13T07:50:55.479Z,75.66
2017-09-13T07:53:23.204Z,77.56
2017-09-13T07:58:24.733Z,73.72
2017-09-13T08:00:52.453Z,75.24
2017-09-13T08:03:20.165Z,74.63
2017-09-13T08:05:47.951Z,74.88
2017-09-13T08:08:15.755Z,72.50
2017-09-13T08:10:43.545Z,70.84
2017-09-13T08:13:11.369Z,70.26
2017-09-13T08:15:39.101Z,69.37
2017-09-13T08:18:06.891Z,68.47
2017-09-13T08:20:34.646Z,68.64
2017-09-13T08:23:02.516Z,67.62
2017-09-13T08:25:30.297Z,65.41
2017-09-13T08:27:58.005Z,68.19
2017-09-13T08:30:25.774Z,67.97
2017-09-13T08:32:53.570Z,66.46
2017-09-13T08:35:21.356Z,67.53
2017-09-13T08:37:49.177Z,65.87
2017-09-13T08:40:16.947Z,66.98
2017-09-13T08:42:44.642Z,65.20
2017-09-13T08:45:12.388Z,65.08
2017-09-13T08:47:40.295Z,64.53
2017-09-13T08:50:08.102Z,62.15
2017-09-13T08:52:35.858Z,63.82
2017-09-13T08:55:03.706Z,63.58
2017-09-13T08:57:31.627Z,61.22
2017-09-13T08:59:59.587Z,62.03
2017-09-13T09:02:27.390Z,60.64
2017-09-13T09:04:55.205Z,58.34
2017-09-13T09:07:22.995Z,61.48
2017-09-13T09:09:51.831Z,61.19
2017-09-13T09:12:20.579Z,62.19
2017-09-13T09:14:48.324Z,58.44
2017-09-13T09:17:16.071Z,61.92
2017-09-13T09:19:44.193Z,63.00
2017-09-13T09:22:12.146Z,61.77
2017-09-13T09:24:40.266Z,59.74
2017-09-13T09:27:08.238Z,59.79
2017-09-13T09:29:35.994Z,60.14
2017-09-13T09:32:03.686Z,57.48
2017-09-13T09:34:31.472Z,53.62
2017-09-13T09:36:59.205Z,55.98
2017-09-13T09:39:27.103Z,55.45
2017-09-13T09:41:54.895Z,56.56
2017-09-13T09:44:22.641Z,57.83
2017-09-13T09:46:50.309Z,58.13
2017-09-13T09:49:18.066Z,57.63
2017-09-13T09:51:45.831Z,57.68
2017-09-13T09:54:13.793Z,58.32
2017-09-13T09:56:41.633Z,56.50
2017-09-13T09:59:09.383Z,58.03
2017-09-13T10:01:37.256Z,49.96
2017-09-13T10:04:05.023Z,55.18
2017-09-13T10:06:32.889Z,57.62
2017-09-13T10:09:00.635Z,56.99
2017-09-13T10:11:28.381Z,58.61
2017-09-13T10:13:56.178Z,57.95
2017-09-13T10:16:23.970Z,57.14
2017-09-13T10:18:51.736Z,54.95
2017-09-13T10:21:19.525Z,55.84
2017-09-13T10:23:47.242Z,52.67
2017-09-13T10:26:15.066Z,50.91
2017-09-13T10:28:42.833Z,54.86
2017-09-13T10:31:10.646Z,51.49
2017-09-13T10:33:38.397Z,48.02
2017-09-13T10:36:06.212Z,48.10
2017-09-13T10:38:33.963Z,49.10
2017-09-13T10:41:02.856Z,49.10
2017-09-13T10:43:31.144Z,51.73
2017-09-13T10:45:58.975Z,48.92
2017-09-13T10:48:26.865Z,47.93
2017-09-13T10:50:54.952Z,52.07
2017-09-13T10:53:22.801Z,51.07
2017-09-13T10:55:51.608Z,48.43
2017-09-13T10:58:19.402Z,49.96
2017-09-13T11:00:47.241Z,48.54
2017-09-13T11:03:15.091Z,48.70
2017-09-13T11:05:42.941Z,51.96
2017-09-13T11:08:10.720Z,56.35
2017-09-13T11:10:38.572Z,53.60
2017-09-13T11:13:06.322Z,53.65
2017-09-13T11:15:34.788Z,56.16
2017-09-13T11:18:02.569Z,56.96
2017-09-13T11:20:31.141Z,57.15
2017-09-13T11:22:59.697Z,60.80
2017-09-13T11:25:28.201Z,56.78
2017-09-13T11:27:56.001Z,57.35
2017-09-13T11:30:23.750Z,60.34
2017-09-13T11:32:53.303Z,62.65
2017-09-13T11:35:21.788Z,62.16
2017-09-13T11:37:49.754Z,59.87
2017-09-13T11:40:17.547Z,57.87
2017-09-13T11:42:45.316Z,58.73
2017-09-13T11:45:13.094Z,59.05
2017-09-13T11:47:49.028Z,59.73
2017-09-13T11:50:16.815Z,60.49
2017-09-13T11:52:44.611Z,61.93
2017-09-13T11:55:12.687Z,60.15
2017-09-13T11:57:40.494Z,60.00
2017-09-13T12:00:08.225Z,60.08
2017-09-13T12:02:36.024Z,60.51
2017-09-13T12:05:04.136Z,56.83
2017-09-13T12:07:31.949Z,57.19
2017-09-13T12:09:59.760Z,58.48
2017-09-13T12:12:27.547Z,59.15
2017-09-13T12:14:56.326Z,58.49
2017-09-13T12:17:24.191Z,58.50
2017-09-13T12:19:51.965Z,58.38
2017-09-13T12:22:19.742Z,60.25
2017-09-13T12:24:48.517Z,57.94
2017-09-13T12:27:16.824Z,60.23
2017-09-13T12:29:44.681Z,59.77
2017-09-13T12:32:12.430Z,60.66
2017-09-13T12:34:40.699Z,60.67
2017-09-13T12:37:08.853Z,61.40
2017-09-13T12:39:36.777Z,59.01
2017-09-13T12:42:04.615Z,59.41
2017-09-13T12:44:32.536Z,58.91
2017-09-13T12:47:00.264Z,58.88
2017-09-13T12:49:28.656Z,59.77
2017-09-13T12:51:56.488Z,59.81
2017-09-13T12:54:24.332Z,59.61
2017-09-13T12:56:53.184Z,58.79
2017-09-13T12:59:21.498Z,57.81
2017-09-13T13:01:49.305Z,58.23
2017-09-13T13:04:17.599Z,56.98
2017-09-13T13:06:45.397Z,58.21
2017-09-13T13:09:13.435Z,56.89
2017-09-13T13:11:42.204Z,57.53
2017-09-13T13:14:12.099Z,57.87
2017-09-13T13:16:41.083Z,56.63
2017-09-13T13:19:10.103Z,59.17
2017-09-13T13:21:37.883Z,61.62
2017-09-13T13:24:06.198Z,61.83
2017-09-13T13:26:34.572Z,64.24
2017-09-13T13:29:02.390Z,62.85
2017-09-13T13:31:30.116Z,61.20
2017-09-13T13:33:58.203Z,57.98
2017-09-13T13:36:26.707Z,57.30
2017-09-13T13:38:54.481Z,51.29
2017-09-13T13:41:22.727Z,50.70
2017-09-13T13:43:51.659Z,51.47
2017-09-13T13:46:19.465Z,54.12
2017-09-13T13:48:47.218Z,55.67
2017-09-13T13:51:14.973Z,58.29
2017-09-13T13:53:42.865Z,63.07
2017-09-13T13:56:10.681Z,62.56
2017-09-13T13:58:39.331Z,62.91
2017-09-13T14:01:07.764Z,61.16
2017-09-13T14:03:35.973Z,57.31
2017-09-13T14:06:03.752Z,61.18
2017-09-13T14:08:32.706Z,64.83
2017-09-13T14:11:01.275Z,65.60
2017-09-13T14:13:29.116Z,66.69
2017-09-13T14:15:57.090Z,67.01
2017-09-13T14:18:24.909Z,65.85
2017-09-13T14:20:52.988Z,64.35
2017-09-13T14:23:20.862Z,66.29
2017-09-13T14:25:48.678Z,65.40
2017-09-13T14:28:17.028Z,64.11
2017-09-13T14:30:44.846Z,63.36
2017-09-13T14:33:12.593Z,63.37
2017-09-13T14:35:40.599Z,63.63
2017-09-13T14:38:09.113Z,63.24
2017-09-13T14:40:36.951Z,63.85
2017-09-13T14:43:05.583Z,64.18
2017-09-13T14:45:33.887Z,65.22
2017-09-13T14:48:01.784Z,64.71
2017-09-13T14:50:31.206Z,64.70
2017-09-13T14:52:59.130Z,67.57
2017-09-13T14:55:26.973Z,66.15
2017-09-13T14:57:54.693Z,65.38
2017-09-13T15:00:23.232Z,67.12
2017-09-13T15:02:50.968Z,70.57
2017-09-13T15:05:19.149Z,70.93
2017-09-13T15:07:46.926Z,67.85
2017-09-13T15:10:14.646Z,67.39
2017-09-13T15:12:42.446Z,67.88
2017-09-13T15:15:10.326Z,68.33
2017-09-13T15:17:38.346Z,69.49
2017-09-13T15:20:06.275Z,69.32
2017-09-13T15:22:34.327Z,69.94
2017-09-13T15:25:02.417Z,69.93
2017-09-13T15:27:30.263Z,69.63
2017-09-13T15:29:58.757Z,69.04
2017-09-13T15:32:26.556Z,69.97
2017-09-13T15:34:54.422Z,70.22
2017-09-13T15:37:22.472Z,70.30
2017-09-13T15:39:50.222Z,70.90
2017-09-13T15:42:17.964Z,71.17
2017-09-13T15:44:46.943Z,71.62
2017-09-13T15:47:14.834Z,72.72
2017-09-13T15:49:42.620Z,72.67
2017-09-13T15:52:10.477Z,74.56
2017-09-13T15:54:38.235Z,74.10
2017-09-13T15:57:06.103Z,73.18
2017-09-13T15:59:33.912Z,72.78
2017-09-13T16:02:01.718Z,73.56
2017-09-13T16:04:30.335Z,74.14
2017-09-13T16:06:58.112Z,74.09
2017-09-13T16:09:26.742Z,73.59
2017-09-13T16:11:54.529Z,73.33
2017-09-13T16:14:23.169Z,73.27
2017-09-13T16:16:52.882Z,73.60
2017-09-13T16:19:20.603Z,74.06
2017-09-13T16:21:48.687Z,74.15
2017-09-13T16:24:16.417Z,74.19
2017-09-13T16:26:44.545Z,74.47
2017-09-13T16:29:12.367Z,75.36
2017-09-13T16:31:40.123Z,75.51
2017-09-13T16:34:07.830Z,75.77
2017-09-13T16:36:35.623Z,76.08
2017-09-13T16:39:03.478Z,76.11
2017-09-13T16:41:31.298Z,75.39
2017-09-13T16:43:59.134Z,74.59
2017-09-13T16:46:26.877Z,75.61
2017-09-13T16:48:54.720Z,77.61
2017-09-13T16:51:22.430Z,77.50
2017-09-13T16:53:50.124Z,77.71
2017-09-13T16:56:17.972Z,77.50
2017-09-13T16:58:45.846Z,76.54
2017-09-13T17:01:13.622Z,76.18
2017-09-13T17:03:41.422Z,76.23
2017-09-13T17:06:09.386Z,75.45
2017-09-13T17:08:37.762Z,76.48
2017-09-13T17:11:05.603Z,77.19
2017-09-13T17:13:33.409Z,76.92
2017-09-13T17:16:02.419Z,77.08
2017-09-13T17:18:30.234Z,76.52
2017-09-13T17:20:58.027Z,77.35
2017-09-13T17:23:25.758Z,76.98
2017-09-13T17:25:53.533Z,77.21
2017-09-13T17:28:21.504Z,77.85
2017-09-13T17:30:50.502Z,78.25
2017-09-13T17:33:18.334Z,78.47
2017-09-13T17:35:46.214Z,78.00
2017-09-13T17:38:14.017Z,77.85
2017-09-13T17:40:41.758Z,78.03
2017-09-13T17:43:09.626Z,79.37
2017-09-13T17:45:37.712Z,79.40
2017-09-13T17:48:06.258Z,79.23
2017-09-13T17:50:34.281Z,79.38
2017-09-13T17:53:02.639Z,79.84
2017-09-13T17:55:30.435Z,79.42
2017-09-13T17:57:58.327Z,79.26
2017-09-13T18:00:26.168Z,79.33
2017-09-13T18:02:54.118Z,79.40
2017-09-13T18:05:22.173Z,79.31
2017-09-13T18:07:50.481Z,78.89
2017-09-13T18:10:18.281Z,78.75
2017-09-13T18:12:46.087Z,79.17
2017-09-13T18:15:13.940Z,80.53
2017-09-13T18:17:41.793Z,81.87
2017-09-13T18:20:09.639Z,82.03
2017-09-13T18:22:37.471Z,81.87
2017-09-13T18:25:05.252Z,81.43
2017-09-13T18:27:33.042Z,81.32
2017-09-13T18:30:01.068Z,81.39
2017-09-13T18:32:28.829Z,80.79
2017-09-13T18:34:56.626Z,80.46
2017-09-13T18:37:24.449Z,81.00
2017-09-13T18:39:52.193Z,81.45
2017-09-13T18:42:20.479Z,80.67
2017-09-13T18:44:48.311Z,80.49
2017-09-13T18:47:16.956Z,81.20
2017-09-13T18:49:44.782Z,81.72
2017-09-13T18:52:13.043Z,81.85
2017-09-13T18:54:40.860Z,82.34
2017-09-13T18:57:08.874Z,82.24
2017-09-13T18:59:36.745Z,82.08
2017-09-13T19:02:06.627Z,81.86
2017-09-13T19:04:36.067Z,82.03
2017-09-13T19:07:03.890Z,82.93
2017-09-13T19:09:32.683Z,82.81
2017-09-13T19:12:00.533Z,82.68
2017-09-13T19:14:28.296Z,82.07
2017-09-13T19:16:56.150Z,82.29
2017-09-13T19:19:23.977Z,82.31
2017-09-13T19:21:51.691Z,82.10
2017-09-13T19:24:19.672Z,82.60
2017-09-13T19:26:47.431Z,83.64
2017-09-13T19:29:15.174Z,83.22
2017-09-13T19:31:43.327Z,82.99
2017-09-13T19:34:11.123Z,83.32
2017-09-13T19:36:38.964Z,83.12
2017-09-13T19:39:10.317Z,83.37
2017-09-13T19:41:39.271Z,83.62
2017-09-13T19:44:07.065Z,83.91
2017-09-13T19:46:36.022Z,83.51
2017-09-13T19:49:04.876Z,83.73
2017-09-13T19:51:32.896Z,83.50
2017-09-13T19:54:00.680Z,83.93
2017-09-13T19:56:28.405Z,83.94
2017-09-13T19:58:56.189Z,84.38
2017-09-13T20:01:24.734Z,84.38
2017-09-13T20:03:52.441Z,84.02
2017-09-13T20:06:20.580Z,84.23
2017-09-13T20:08:49.493Z,84.06
2017-09-13T20:11:18.577Z,84.11
2017-09-13T20:13:47.126Z,84.05
2017-09-13T20:16:14.917Z,83.96
2017-09-13T20:18:43.384Z,84.55
2017-09-13T20:21:11.155Z,83.81
2017-09-13T20:23:38.858Z,84.10
2017-09-13T20:26:06.600Z,85.25
2017-09-13T20:28:34.334Z,84.45
2017-09-13T20:31:02.043Z,85.31
2017-09-13T20:33:29.796Z,85.15
2017-09-13T20:35:58.064Z,84.95
2017-09-13T20:38:27.021Z,85.88
2017-09-13T20:40:55.752Z,85.88
2017-09-13T20:43:23.544Z,85.70
2017-09-13T20:45:52.188Z,85.25
2017-09-13T20:48:20.360Z,85.69
2017-09-13T20:50:49.239Z,85.11
2017-09-13T20:53:17.059Z,85.44
2017-09-13T20:55:44.944Z,85.50
2017-09-13T20:58:14.247Z,85.75
2017-09-13T21:00:42.022Z,85.06
2017-09-13T21:03:09.785Z,85.71
2017-09-13T21:05:38.148Z,86.31
2017-09-13T21:08:09.858Z,86.24
2017-09-13T21:10:39.302Z,85.03
2017-09-13T21:13:07.744Z,84.77
2017-09-13T21:15:36.865Z,86.02
2017-09-13T21:18:05.719Z,85.22
2017-09-13T21:20:33.485Z,85.09
2017-09-13T21:23:01.393Z,85.52
2017-09-13T21:25:29.170Z,85.54
2017-09-13T21:27:57.575Z,85.46
2017-09-13T21:30:25.375Z,85.17
2017-09-13T21:32:53.079Z,84.99
2017-09-13T21:35:21.740Z,85.00
2017-09-13T21:37:50.140Z,85.39
2017-09-13T21:40:17.850Z,86.29
2017-09-13T21:42:45.638Z,86.02
2017-09-13T21:45:13.423Z,85.41
2017-09-13T21:47:41.763Z,85.62
2017-09-13T21:50:09.485Z,85.96
2017-09-13T21:52:37.321Z,86.08
2017-09-13T21:55:05.043Z,86.39
2017-09-13T21:57:32.882Z,86.34
2017-09-13T22:00:02.239Z,85.65
2017-09-13T22:02:30.019Z,86.72
2017-09-13T22:04:57.894Z,86.74
2017-09-13T22:07:26.067Z,85.86
2017-09-13T22:09:53.835Z,85.89
2017-09-13T22:12:22.632Z,86.38
2017-09-13T22:14:50.703Z,87.35
2017-09-13T22:17:19.145Z,86.80
2017-09-13T22:19:46.921Z,86.84
2017-09-13T22:22:14.891Z,86.36
2017-09-13T22:24:42.997Z,85.63
2017-09-13T22:27:11.941Z,85.58
2017-09-13T22:29:40.431Z,86.49
2017-09-13T22:32:08.351Z,85.98
2017-09-13T22:34:36.575Z,86.39
2017-09-13T22:37:04.304Z,86.84
2017-09-13T22:39:32.072Z,86.44
2017-09-13T22:41:59.781Z,86.15
2017-09-13T22:44:28.645Z,85.90
2017-09-13T22:46:56.384Z,86.49
2017-09-13T22:49:25.776Z,86.82
2017-09-13T22:51:56.511Z,86.62
2017-09-13T22:54:24.367Z,86.43
2017-09-13T22:56:53.438Z,86.09
2017-09-13T22:59:21.507Z,86.86
2017-09-13T23:01:50.841Z,87.12
2017-09-13T23:04:18.520Z,86.50
2017-09-13T23:06:46.264Z,86.54
2017-09-13T23:09:13.981Z,86.09
2017-09-13T23:11:41.860Z,86.56
2017-09-13T23:14:11.248Z,86.44
2017-09-13T23:16:39.087Z,86.28
2017-09-13T23:19:08.099Z,86.99
2017-09-13T23:21:36.632Z,86.27
2017-09-13T23:24:05.590Z,86.24
2017-09-13T23:26:35.121Z,86.78
2017-09-13T23:29:03.057Z,86.50
2017-09-13T23:31:32.865Z,86.62
2017-09-13T23:34:00.597Z,86.63
2017-09-13T23:36:28.377Z,87.12
2017-09-13T23:38:57.200Z,86.63
2017-09-13T23:41:25.035Z,86.37
2017-09-13T23:43:53.421Z,86.63
2017-09-13T23:46:21.239Z,86.62
2017-09-13T23:48:48.973Z,87.63
2017-09-13T23:51:16.716Z,87.51
2017-09-13T23:53:46.154Z,86.16
2017-09-13T23:56:14.922Z,87.03
2017-09-13T23:58:42.633Z,86.98
